sensor_id;sensor_type;location;lat;lon;timestamp;temperature;humidity
9410;DHT22;4744;52.576;13.568;2023-06-04T00:02:12;10.40;1.00
9410;DHT22;4744;52.576;13.568;2023-06-04T00:04:39;10.30;1.00
9410;DHT22;4744;52.576;13.568;2023-06-04T00:07:06;10.30;1.00
9410;DHT22;4744;52.576;13.568;2023-06-04T00:09:33;10.20;1.00
9410;DHT22;4744;52.576;13.568;2023-06-04T00:12:00;10.10;1.00
9410;DHT22;4744;52.576;13.568;2023-06-04T00:14:26;10.10;1.00
9410;DHT22;4744;52.576;13.568;2023-06-04T00:16:55;10.10;1.00
9410;DHT22;4744;52.576;13.568;2023-06-04T00:19:22;10.10;1.00
9410;DHT22;4744;52.576;13.568;2023-06-04T00:21:49;10.10;1.00
9410;DHT22;4744;52.576;13.568;2023-06-04T00:24:16;10.10;1.00
9410;DHT22;4744;52.576;13.568;2023-06-04T00:26:44;10.00;1.00
9410;DHT22;4744;52.576;13.568;2023-06-04T00:29:11;9.90;1.00
9410;DHT22;4744;52.576;13.568;2023-06-04T00:31:38;9.80;1.00
9410;DHT22;4744;52.576;13.568;2023-06-04T00:34:06;9.70;1.00
9410;DHT22;4744;52.576;13.568;2023-06-04T00:36:33;9.70;1.00
9410;DHT22;4744;52.576;13.568;2023-06-04T00:39:00;9.60;1.00
9410;DHT22;4744;52.576;13.568;2023-06-04T00:41:27;9.60;1.00
9410;DHT22;4744;52.576;13.568;2023-06-04T00:43:54;9.60;1.00
9410;DHT22;4744;52.576;13.568;2023-06-04T00:46:23;9.50;1.00
9410;DHT22;4744;52.576;13.568;2023-06-04T00:48:51;9.50;1.00
9410;DHT22;4744;52.576;13.568;2023-06-04T00:51:20;9.40;1.00
9410;DHT22;4744;52.576;13.568;2023-06-04T00:53:49;9.30;1.00
9410;DHT22;4744;52.576;13.568;2023-06-04T00:56:16;9.20;1.00
9410;DHT22;4744;52.576;13.568;2023-06-04T00:58:44;9.10;1.00
9410;DHT22;4744;52.576;13.568;2023-06-04T01:01:18;9.00;1.00
9410;DHT22;4744;52.576;13.568;2023-06-04T01:03:49;8.90;1.00
9410;DHT22;4744;52.576;13.568;2023-06-04T01:06:24;8.90;1.00
9410;DHT22;4744;52.576;13.568;2023-06-04T01:08:55;9.00;1.00
9410;DHT22;4744;52.576;13.568;2023-06-04T01:11:34;8.90;1.00
9410;DHT22;4744;52.576;13.568;2023-06-04T01:14:01;8.90;1.00
9410;DHT22;4744;52.576;13.568;2023-06-04T01:16:31;8.90;1.00
9410;DHT22;4744;52.576;13.568;2023-06-04T01:19:02;8.90;1.00
9410;DHT22;4744;52.576;13.568;2023-06-04T01:21:36;8.80;1.00
9410;DHT22;4744;52.576;13.568;2023-06-04T01:24:05;8.90;1.00
9410;DHT22;4744;52.576;13.568;2023-06-04T01:26:35;8.80;1.00
9410;DHT22;4744;52.576;13.568;2023-06-04T01:29:03;8.90;1.00
9410;DHT22;4744;52.576;13.568;2023-06-04T01:31:31;8.90;1.00
9410;DHT22;4744;52.576;13.568;2023-06-04T01:33:58;8.90;1.00
9410;DHT22;4744;52.576;13.568;2023-06-04T01:36:25;8.90;1.00
9410;DHT22;4744;52.576;13.568;2023-06-04T01:38:53;8.80;1.00
9410;DHT22;4744;52.576;13.568;2023-06-04T01:41:21;8.80;1.00
9410;DHT22;4744;52.576;13.568;2023-06-04T01:43:48;8.70;1.00
9410;DHT22;4744;52.576;13.568;2023-06-04T01:46:15;8.70;1.00
9410;DHT22;4744;52.576;13.568;2023-06-04T01:48:42;8.60;1.00
9410;DHT22;4744;52.576;13.568;2023-06-04T01:51:09;8.60;1.00
9410;DHT22;4744;52.576;13.568;2023-06-04T01:53:36;8.50;1.00
9410;DHT22;4744;52.576;13.568;2023-06-04T01:56:04;8.50;1.00
9410;DHT22;4744;52.576;13.568;2023-06-04T01:58:33;8.50;1.00
9410;DHT22;4744;52.576;13.568;2023-06-04T02:00:59;8.50;1.00
9410;DHT22;4744;52.576;13.568;2023-06-04T02:03:28;8.60;1.00
9410;DHT22;4744;52.576;13.568;2023-06-04T02:06:01;8.50;1.00
9410;DHT22;4744;52.576;13.568;2023-06-04T02:08:29;8.50;1.00
9410;DHT22;4744;52.576;13.568;2023-06-04T02:10:59;8.40;1.00
9410;DHT22;4744;52.576;13.568;2023-06-04T02:13:27;8.30;1.00
9410;DHT22;4744;52.576;13.568;2023-06-04T02:15:54;8.20;1.00
9410;DHT22;4744;52.576;13.568;2023-06-04T02:18:21;8.20;1.00
9410;DHT22;4744;52.576;13.568;2023-06-04T02:20:49;8.10;1.00
9410;DHT22;4744;52.576;13.568;2023-06-04T02:23:17;8.10;1.00
9410;DHT22;4744;52.576;13.568;2023-06-04T02:25:44;8.00;1.00
9410;DHT22;4744;52.576;13.568;2023-06-04T02:28:11;8.00;1.00
9410;DHT22;4744;52.576;13.568;2023-06-04T02:30:40;7.90;1.00
9410;DHT22;4744;52.576;13.568;2023-06-04T02:33:07;7.90;1.00
9410;DHT22;4744;52.576;13.568;2023-06-04T02:35:35;7.90;1.00
9410;DHT22;4744;52.576;13.568;2023-06-04T02:38:02;7.80;1.00
9410;DHT22;4744;52.576;13.568;2023-06-04T02:40:29;7.80;1.00
9410;DHT22;4744;52.576;13.568;2023-06-04T02:42:56;7.70;1.00
9410;DHT22;4744;52.576;13.568;2023-06-04T02:45:24;7.70;1.00
9410;DHT22;4744;52.576;13.568;2023-06-04T02:47:52;7.70;1.00
9410;DHT22;4744;52.576;13.568;2023-06-04T02:50:19;7.70;1.00
9410;DHT22;4744;52.576;13.568;2023-06-04T02:52:46;7.70;1.00
9410;DHT22;4744;52.576;13.568;2023-06-04T02:55:13;7.70;1.00
9410;DHT22;4744;52.576;13.568;2023-06-04T02:57:41;7.70;1.00
9410;DHT22;4744;52.576;13.568;2023-06-04T03:00:09;7.60;1.00
9410;DHT22;4744;52.576;13.568;2023-06-04T03:02:39;7.60;1.00
9410;DHT22;4744;52.576;13.568;2023-06-04T03:05:08;7.60;1.00
9410;DHT22;4744;52.576;13.568;2023-06-04T03:07:36;7.60;1.00
9410;DHT22;4744;52.576;13.568;2023-06-04T03:10:04;7.50;1.00
9410;DHT22;4744;52.576;13.568;2023-06-04T03:12:31;7.50;1.00
9410;DHT22;4744;52.576;13.568;2023-06-04T03:14:58;7.50;1.00
9410;DHT22;4744;52.576;13.568;2023-06-04T03:17:26;7.50;1.00
9410;DHT22;4744;52.576;13.568;2023-06-04T03:19:53;7.50;1.00
9410;DHT22;4744;52.576;13.568;2023-06-04T03:22:23;7.50;1.00
9410;DHT22;4744;52.576;13.568;2023-06-04T03:24:49;7.60;1.00
9410;DHT22;4744;52.576;13.568;2023-06-04T03:27:17;7.60;1.00
9410;DHT22;4744;52.576;13.568;2023-06-04T03:29:44;7.60;1.00
9410;DHT22;4744;52.576;13.568;2023-06-04T03:32:12;7.60;1.00
9410;DHT22;4744;52.576;13.568;2023-06-04T03:34:39;7.70;1.00
9410;DHT22;4744;52.576;13.568;2023-06-04T03:37:06;7.70;1.00
9410;DHT22;4744;52.576;13.568;2023-06-04T03:39:34;7.70;1.00
9410;DHT22;4744;52.576;13.568;2023-06-04T03:42:01;7.70;1.00
9410;DHT22;4744;52.576;13.568;2023-06-04T03:44:28;7.70;1.00
9410;DHT22;4744;52.576;13.568;2023-06-04T03:46:55;7.70;1.00
9410;DHT22;4744;52.576;13.568;2023-06-04T03:49:22;7.70;1.00
9410;DHT22;4744;52.576;13.568;2023-06-04T03:51:49;7.70;1.00
9410;DHT22;4744;52.576;13.568;2023-06-04T03:54:16;7.80;1.00
9410;DHT22;4744;52.576;13.568;2023-06-04T03:56:45;7.80;1.00
9410;DHT22;4744;52.576;13.568;2023-06-04T03:59:12;7.80;1.00
9410;DHT22;4744;52.576;13.568;2023-06-04T04:01:39;7.90;1.00
9410;DHT22;4744;52.576;13.568;2023-06-04T04:04:07;7.90;1.00
9410;DHT22;4744;52.576;13.568;2023-06-04T04:06:33;8.00;1.00
9410;DHT22;4744;52.576;13.568;2023-06-04T04:09:01;8.00;1.00
9410;DHT22;4744;52.576;13.568;2023-06-04T04:11:28;8.10;1.00
9410;DHT22;4744;52.576;13.568;2023-06-04T04:13:57;8.10;1.00
9410;DHT22;4744;52.576;13.568;2023-06-04T04:16:24;8.20;1.00
9410;DHT22;4744;52.576;13.568;2023-06-04T04:18:53;8.30;1.00
9410;DHT22;4744;52.576;13.568;2023-06-04T04:21:20;8.30;1.00
9410;DHT22;4744;52.576;13.568;2023-06-04T04:23:49;8.40;1.00
9410;DHT22;4744;52.576;13.568;2023-06-04T04:26:16;8.50;1.00
9410;DHT22;4744;52.576;13.568;2023-06-04T04:28:43;8.50;1.00
9410;DHT22;4744;52.576;13.568;2023-06-04T04:31:12;8.60;1.00
9410;DHT22;4744;52.576;13.568;2023-06-04T04:33:40;8.70;1.00
9410;DHT22;4744;52.576;13.568;2023-06-04T04:36:07;8.80;1.00
9410;DHT22;4744;52.576;13.568;2023-06-04T04:38:39;8.90;1.00
9410;DHT22;4744;52.576;13.568;2023-06-04T04:41:06;9.00;1.00
9410;DHT22;4744;52.576;13.568;2023-06-04T04:43:35;9.10;1.00
9410;DHT22;4744;52.576;13.568;2023-06-04T04:46:03;9.30;1.00
9410;DHT22;4744;52.576;13.568;2023-06-04T04:48:31;9.40;1.00
9410;DHT22;4744;52.576;13.568;2023-06-04T04:50:58;9.60;1.00
9410;DHT22;4744;52.576;13.568;2023-06-04T04:53:26;9.70;1.00
9410;DHT22;4744;52.576;13.568;2023-06-04T04:55:53;9.90;1.00
9410;DHT22;4744;52.576;13.568;2023-06-04T04:58:20;10.00;1.00
9410;DHT22;4744;52.576;13.568;2023-06-04T05:00:47;10.10;1.00
9410;DHT22;4744;52.576;13.568;2023-06-04T05:03:14;10.30;1.00
9410;DHT22;4744;52.576;13.568;2023-06-04T05:05:42;10.40;1.00
9410;DHT22;4744;52.576;13.568;2023-06-04T05:08:10;10.60;1.00
9410;DHT22;4744;52.576;13.568;2023-06-04T05:10:36;10.70;1.00
9410;DHT22;4744;52.576;13.568;2023-06-04T05:13:03;10.80;1.00
9410;DHT22;4744;52.576;13.568;2023-06-04T05:15:31;11.00;1.00
9410;DHT22;4744;52.576;13.568;2023-06-04T05:17:58;11.10;1.00
9410;DHT22;4744;52.576;13.568;2023-06-04T05:20:29;11.30;1.00
9410;DHT22;4744;52.576;13.568;2023-06-04T05:22:57;11.50;1.00
9410;DHT22;4744;52.576;13.568;2023-06-04T05:25:24;11.60;1.00
9410;DHT22;4744;52.576;13.568;2023-06-04T05:27:52;11.80;1.00
9410;DHT22;4744;52.576;13.568;2023-06-04T05:30:20;11.90;1.00
9410;DHT22;4744;52.576;13.568;2023-06-04T05:32:47;12.20;1.00
9410;DHT22;4744;52.576;13.568;2023-06-04T05:35:16;12.30;1.00
9410;DHT22;4744;52.576;13.568;2023-06-04T05:37:43;12.40;1.00
9410;DHT22;4744;52.576;13.568;2023-06-04T05:40:12;12.50;1.00
9410;DHT22;4744;52.576;13.568;2023-06-04T05:42:41;12.70;1.00
9410;DHT22;4744;52.576;13.568;2023-06-04T05:45:08;12.80;1.00
9410;DHT22;4744;52.576;13.568;2023-06-04T05:47:35;12.90;1.00
9410;DHT22;4744;52.576;13.568;2023-06-04T05:50:04;12.90;1.00
9410;DHT22;4744;52.576;13.568;2023-06-04T05:52:31;13.00;1.00
9410;DHT22;4744;52.576;13.568;2023-06-04T05:54:58;13.10;1.00
9410;DHT22;4744;52.576;13.568;2023-06-04T05:57:27;13.20;1.00
9410;DHT22;4744;52.576;13.568;2023-06-04T05:59:53;13.40;1.00
9410;DHT22;4744;52.576;13.568;2023-06-04T06:02:20;13.50;1.00
9410;DHT22;4744;52.576;13.568;2023-06-04T06:04:47;13.60;1.00
9410;DHT22;4744;52.576;13.568;2023-06-04T06:07:14;13.70;1.00
9410;DHT22;4744;52.576;13.568;2023-06-04T06:09:41;13.80;1.00
9410;DHT22;4744;52.576;13.568;2023-06-04T06:12:08;13.90;1.00
9410;DHT22;4744;52.576;13.568;2023-06-04T06:14:37;14.00;1.00
9410;DHT22;4744;52.576;13.568;2023-06-04T06:17:04;14.20;1.00
9410;DHT22;4744;52.576;13.568;2023-06-04T06:19:32;14.40;1.00
9410;DHT22;4744;52.576;13.568;2023-06-04T06:21:59;14.60;1.00
9410;DHT22;4744;52.576;13.568;2023-06-04T06:24:25;14.80;1.00
9410;DHT22;4744;52.576;13.568;2023-06-04T06:26:52;14.90;1.00
9410;DHT22;4744;52.576;13.568;2023-06-04T06:29:19;15.00;1.00
9410;DHT22;4744;52.576;13.568;2023-06-04T06:31:48;15.20;1.00
9410;DHT22;4744;52.576;13.568;2023-06-04T06:34:15;15.40;1.00
9410;DHT22;4744;52.576;13.568;2023-06-04T06:36:42;15.60;1.00
9410;DHT22;4744;52.576;13.568;2023-06-04T06:39:09;15.70;1.00
9410;DHT22;4744;52.576;13.568;2023-06-04T06:41:36;15.90;1.00
9410;DHT22;4744;52.576;13.568;2023-06-04T06:44:04;16.00;1.00
9410;DHT22;4744;52.576;13.568;2023-06-04T06:46:31;16.10;1.00
9410;DHT22;4744;52.576;13.568;2023-06-04T06:48:59;16.30;1.00
9410;DHT22;4744;52.576;13.568;2023-06-04T06:51:26;16.30;1.00
9410;DHT22;4744;52.576;13.568;2023-06-04T06:53:53;16.40;1.00
9410;DHT22;4744;52.576;13.568;2023-06-04T06:56:20;16.50;1.00
9410;DHT22;4744;52.576;13.568;2023-06-04T06:58:47;16.50;1.00
9410;DHT22;4744;52.576;13.568;2023-06-04T07:01:15;16.60;1.00
9410;DHT22;4744;52.576;13.568;2023-06-04T07:03:42;16.70;1.00
9410;DHT22;4744;52.576;13.568;2023-06-04T07:06:10;16.80;1.00
9410;DHT22;4744;52.576;13.568;2023-06-04T07:08:37;16.90;1.00
9410;DHT22;4744;52.576;13.568;2023-06-04T07:11:04;17.00;1.00
9410;DHT22;4744;52.576;13.568;2023-06-04T07:13:31;17.10;1.00
9410;DHT22;4744;52.576;13.568;2023-06-04T07:16:01;17.10;1.00
9410;DHT22;4744;52.576;13.568;2023-06-04T07:18:28;17.20;1.00
9410;DHT22;4744;52.576;13.568;2023-06-04T07:20:54;17.20;1.00
9410;DHT22;4744;52.576;13.568;2023-06-04T07:23:23;17.30;1.00
9410;DHT22;4744;52.576;13.568;2023-06-04T07:25:50;17.40;1.00
9410;DHT22;4744;52.576;13.568;2023-06-04T07:28:17;17.40;1.00
9410;DHT22;4744;52.576;13.568;2023-06-04T07:30:45;17.50;1.00
9410;DHT22;4744;52.576;13.568;2023-06-04T07:33:12;17.70;1.00
9410;DHT22;4744;52.576;13.568;2023-06-04T07:35:39;17.70;1.00
9410;DHT22;4744;52.576;13.568;2023-06-04T07:38:06;17.80;1.00
9410;DHT22;4744;52.576;13.568;2023-06-04T07:40:34;17.90;1.00
9410;DHT22;4744;52.576;13.568;2023-06-04T07:43:01;18.00;1.00
9410;DHT22;4744;52.576;13.568;2023-06-04T07:45:28;18.10;1.00
9410;DHT22;4744;52.576;13.568;2023-06-04T07:47:56;18.20;1.00
9410;DHT22;4744;52.576;13.568;2023-06-04T07:50:23;18.20;1.00
9410;DHT22;4744;52.576;13.568;2023-06-04T07:52:50;18.20;1.00
9410;DHT22;4744;52.576;13.568;2023-06-04T07:55:17;18.20;1.00
9410;DHT22;4744;52.576;13.568;2023-06-04T07:57:45;18.30;1.00
9410;DHT22;4744;52.576;13.568;2023-06-04T08:00:13;18.50;1.00
9410;DHT22;4744;52.576;13.568;2023-06-04T08:02:41;18.60;1.00
9410;DHT22;4744;52.576;13.568;2023-06-04T08:05:08;18.70;1.00
9410;DHT22;4744;52.576;13.568;2023-06-04T08:07:35;18.80;1.00
9410;DHT22;4744;52.576;13.568;2023-06-04T08:10:02;18.90;1.00
9410;DHT22;4744;52.576;13.568;2023-06-04T08:12:29;18.90;1.00
9410;DHT22;4744;52.576;13.568;2023-06-04T08:14:57;18.90;1.00
9410;DHT22;4744;52.576;13.568;2023-06-04T08:17:24;18.90;1.00
9410;DHT22;4744;52.576;13.568;2023-06-04T08:19:51;19.00;1.00
9410;DHT22;4744;52.576;13.568;2023-06-04T08:22:18;19.00;1.00
9410;DHT22;4744;52.576;13.568;2023-06-04T08:24:45;19.10;1.00
9410;DHT22;4744;52.576;13.568;2023-06-04T08:27:12;19.20;1.00
9410;DHT22;4744;52.576;13.568;2023-06-04T08:29:39;19.30;1.00
9410;DHT22;4744;52.576;13.568;2023-06-04T08:32:07;19.30;1.00
9410;DHT22;4744;52.576;13.568;2023-06-04T08:34:34;19.40;1.00
9410;DHT22;4744;52.576;13.568;2023-06-04T08:37:02;19.40;1.00
9410;DHT22;4744;52.576;13.568;2023-06-04T08:39:29;19.40;1.00
9410;DHT22;4744;52.576;13.568;2023-06-04T08:42:00;19.40;1.00
9410;DHT22;4744;52.576;13.568;2023-06-04T08:44:28;19.40;1.00
9410;DHT22;4744;52.576;13.568;2023-06-04T08:47:02;19.40;1.00
9410;DHT22;4744;52.576;13.568;2023-06-04T08:49:34;19.50;1.00
9410;DHT22;4744;52.576;13.568;2023-06-04T08:52:01;19.50;1.00
9410;DHT22;4744;52.576;13.568;2023-06-04T08:54:29;19.50;1.00
9410;DHT22;4744;52.576;13.568;2023-06-04T08:56:57;19.60;1.00
9410;DHT22;4744;52.576;13.568;2023-06-04T08:59:24;19.70;1.00
9410;DHT22;4744;52.576;13.568;2023-06-04T09:01:53;19.70;1.00
9410;DHT22;4744;52.576;13.568;2023-06-04T09:04:20;19.70;1.00
9410;DHT22;4744;52.576;13.568;2023-06-04T09:06:49;19.80;1.00
9410;DHT22;4744;52.576;13.568;2023-06-04T09:09:17;19.80;1.00
9410;DHT22;4744;52.576;13.568;2023-06-04T09:11:49;19.70;1.00
9410;DHT22;4744;52.576;13.568;2023-06-04T09:14:18;19.70;1.00
9410;DHT22;4744;52.576;13.568;2023-06-04T09:16:46;19.80;1.00
9410;DHT22;4744;52.576;13.568;2023-06-04T09:19:13;19.90;1.00
9410;DHT22;4744;52.576;13.568;2023-06-04T09:21:52;20.00;1.00
9410;DHT22;4744;52.576;13.568;2023-06-04T09:24:20;20.00;1.00
9410;DHT22;4744;52.576;13.568;2023-06-04T09:26:48;19.90;1.00
9410;DHT22;4744;52.576;13.568;2023-06-04T09:29:16;19.90;1.00
9410;DHT22;4744;52.576;13.568;2023-06-04T09:31:44;19.70;1.00
9410;DHT22;4744;52.576;13.568;2023-06-04T09:34:12;19.70;1.00
9410;DHT22;4744;52.576;13.568;2023-06-04T09:36:39;19.70;1.00
9410;DHT22;4744;52.576;13.568;2023-06-04T09:39:16;19.80;1.00
9410;DHT22;4744;52.576;13.568;2023-06-04T09:41:43;20.00;1.00
9410;DHT22;4744;52.576;13.568;2023-06-04T09:44:10;20.10;1.00
9410;DHT22;4744;52.576;13.568;2023-06-04T09:46:37;20.20;1.00
9410;DHT22;4744;52.576;13.568;2023-06-04T09:49:05;20.40;1.00
9410;DHT22;4744;52.576;13.568;2023-06-04T09:51:32;20.40;1.00
9410;DHT22;4744;52.576;13.568;2023-06-04T09:54:02;20.30;1.00
9410;DHT22;4744;52.576;13.568;2023-06-04T09:56:39;20.20;1.00
9410;DHT22;4744;52.576;13.568;2023-06-04T09:59:08;20.20;1.00
9410;DHT22;4744;52.576;13.568;2023-06-04T10:01:39;20.40;1.00
9410;DHT22;4744;52.576;13.568;2023-06-04T10:04:08;20.40;1.00
9410;DHT22;4744;52.576;13.568;2023-06-04T10:06:38;20.50;1.00
9410;DHT22;4744;52.576;13.568;2023-06-04T10:09:07;20.70;1.00
9410;DHT22;4744;52.576;13.568;2023-06-04T10:11:38;20.80;1.00
9410;DHT22;4744;52.576;13.568;2023-06-04T10:14:10;20.90;1.00
9410;DHT22;4744;52.576;13.568;2023-06-04T10:16:42;20.90;1.00
9410;DHT22;4744;52.576;13.568;2023-06-04T10:19:10;21.00;1.00
9410;DHT22;4744;52.576;13.568;2023-06-04T10:21:38;21.00;1.00
9410;DHT22;4744;52.576;13.568;2023-06-04T10:24:05;21.10;1.00
9410;DHT22;4744;52.576;13.568;2023-06-04T10:26:33;21.20;1.00
9410;DHT22;4744;52.576;13.568;2023-06-04T10:29:02;21.20;1.00
9410;DHT22;4744;52.576;13.568;2023-06-04T10:31:29;21.40;1.00
9410;DHT22;4744;52.576;13.568;2023-06-04T10:33:56;21.50;1.00
9410;DHT22;4744;52.576;13.568;2023-06-04T10:36:24;21.70;1.00
9410;DHT22;4744;52.576;13.568;2023-06-04T10:38:52;21.90;1.00
9410;DHT22;4744;52.576;13.568;2023-06-04T10:41:20;21.90;1.00
9410;DHT22;4744;52.576;13.568;2023-06-04T10:43:49;22.10;1.00
9410;DHT22;4744;52.576;13.568;2023-06-04T10:46:18;22.20;1.00
9410;DHT22;4744;52.576;13.568;2023-06-04T10:48:46;22.20;1.00
9410;DHT22;4744;52.576;13.568;2023-06-04T10:51:14;22.30;1.00
9410;DHT22;4744;52.576;13.568;2023-06-04T10:53:41;22.50;1.00
9410;DHT22;4744;52.576;13.568;2023-06-04T10:56:08;22.70;1.00
9410;DHT22;4744;52.576;13.568;2023-06-04T10:58:35;22.90;1.00
9410;DHT22;4744;52.576;13.568;2023-06-04T11:01:02;23.00;1.00
9410;DHT22;4744;52.576;13.568;2023-06-04T11:03:36;23.10;1.00
9410;DHT22;4744;52.576;13.568;2023-06-04T11:06:14;23.20;1.00
9410;DHT22;4744;52.576;13.568;2023-06-04T11:08:42;23.30;1.00
9410;DHT22;4744;52.576;13.568;2023-06-04T11:11:11;23.40;1.00
9410;DHT22;4744;52.576;13.568;2023-06-04T11:13:38;23.60;1.00
9410;DHT22;4744;52.576;13.568;2023-06-04T11:16:14;23.70;1.00
9410;DHT22;4744;52.576;13.568;2023-06-04T11:18:44;24.00;1.00
9410;DHT22;4744;52.576;13.568;2023-06-04T11:21:20;24.00;1.00
9410;DHT22;4744;52.576;13.568;2023-06-04T11:23:47;24.00;1.00
9410;DHT22;4744;52.576;13.568;2023-06-04T11:26:14;24.00;1.00
9410;DHT22;4744;52.576;13.568;2023-06-04T11:28:41;24.00;1.00
9410;DHT22;4744;52.576;13.568;2023-06-04T11:31:10;24.10;1.00
9410;DHT22;4744;52.576;13.568;2023-06-04T11:33:46;24.30;1.00
9410;DHT22;4744;52.576;13.568;2023-06-04T11:36:22;24.50;1.00
9410;DHT22;4744;52.576;13.568;2023-06-04T11:38:54;24.40;1.00
9410;DHT22;4744;52.576;13.568;2023-06-04T11:41:22;24.20;1.00
9410;DHT22;4744;52.576;13.568;2023-06-04T11:43:49;24.00;1.00
9410;DHT22;4744;52.576;13.568;2023-06-04T11:46:16;24.00;1.00
9410;DHT22;4744;52.576;13.568;2023-06-04T11:48:44;24.00;1.00
9410;DHT22;4744;52.576;13.568;2023-06-04T11:51:12;23.90;1.00
9410;DHT22;4744;52.576;13.568;2023-06-04T11:53:39;23.80;1.00
9410;DHT22;4744;52.576;13.568;2023-06-04T11:56:07;23.70;1.00
9410;DHT22;4744;52.576;13.568;2023-06-04T11:58:34;23.70;1.00
9410;DHT22;4744;52.576;13.568;2023-06-04T12:01:02;23.80;1.00
9410;DHT22;4744;52.576;13.568;2023-06-04T12:03:34;23.90;1.00
9410;DHT22;4744;52.576;13.568;2023-06-04T12:06:14;24.10;1.00
9410;DHT22;4744;52.576;13.568;2023-06-04T12:08:49;24.30;1.00
9410;DHT22;4744;52.576;13.568;2023-06-04T12:11:27;24.40;1.00
9410;DHT22;4744;52.576;13.568;2023-06-04T12:13:55;24.40;1.00
9410;DHT22;4744;52.576;13.568;2023-06-04T12:16:22;24.50;1.00
9410;DHT22;4744;52.576;13.568;2023-06-04T12:18:49;24.50;1.00
9410;DHT22;4744;52.576;13.568;2023-06-04T12:21:27;24.40;1.00
9410;DHT22;4744;52.576;13.568;2023-06-04T12:24:04;24.00;1.00
9410;DHT22;4744;52.576;13.568;2023-06-04T12:26:32;23.90;1.00
9410;DHT22;4744;52.576;13.568;2023-06-04T12:29:07;23.80;1.00
9410;DHT22;4744;52.576;13.568;2023-06-04T12:31:35;24.00;1.00
9410;DHT22;4744;52.576;13.568;2023-06-04T12:34:02;24.00;1.00
9410;DHT22;4744;52.576;13.568;2023-06-04T12:36:31;24.00;1.00
9410;DHT22;4744;52.576;13.568;2023-06-04T12:39:00;24.00;1.00
9410;DHT22;4744;52.576;13.568;2023-06-04T12:41:27;24.00;1.00
9410;DHT22;4744;52.576;13.568;2023-06-04T12:43:55;24.10;1.00
9410;DHT22;4744;52.576;13.568;2023-06-04T12:46:23;24.10;1.00
9410;DHT22;4744;52.576;13.568;2023-06-04T12:48:50;24.10;1.00
9410;DHT22;4744;52.576;13.568;2023-06-04T12:51:18;24.00;1.00
9410;DHT22;4744;52.576;13.568;2023-06-04T12:53:47;23.90;1.00
9410;DHT22;4744;52.576;13.568;2023-06-04T12:56:14;23.80;1.00
9410;DHT22;4744;52.576;13.568;2023-06-04T12:58:41;23.70;1.00
9410;DHT22;4744;52.576;13.568;2023-06-04T13:01:08;23.70;1.00
9410;DHT22;4744;52.576;13.568;2023-06-04T13:03:36;23.50;1.00
9410;DHT22;4744;52.576;13.568;2023-06-04T13:06:04;23.60;1.00
9410;DHT22;4744;52.576;13.568;2023-06-04T13:08:31;23.70;1.00
9410;DHT22;4744;52.576;13.568;2023-06-04T13:10:59;23.80;1.00
9410;DHT22;4744;52.576;13.568;2023-06-04T13:13:27;23.80;1.00
9410;DHT22;4744;52.576;13.568;2023-06-04T13:15:54;23.80;1.00
9410;DHT22;4744;52.576;13.568;2023-06-04T13:18:21;23.80;1.00
9410;DHT22;4744;52.576;13.568;2023-06-04T13:20:48;23.80;1.00
9410;DHT22;4744;52.576;13.568;2023-06-04T13:23:15;23.80;1.00
9410;DHT22;4744;52.576;13.568;2023-06-04T13:25:42;23.60;1.00
9410;DHT22;4744;52.576;13.568;2023-06-04T13:28:11;23.60;1.00
9410;DHT22;4744;52.576;13.568;2023-06-04T13:30:38;23.60;1.00
9410;DHT22;4744;52.576;13.568;2023-06-04T13:33:05;23.60;1.00
9410;DHT22;4744;52.576;13.568;2023-06-04T13:35:32;23.60;1.00
9410;DHT22;4744;52.576;13.568;2023-06-04T13:37:59;23.60;1.00
9410;DHT22;4744;52.576;13.568;2023-06-04T13:40:26;23.60;1.00
9410;DHT22;4744;52.576;13.568;2023-06-04T13:42:53;23.60;1.00
9410;DHT22;4744;52.576;13.568;2023-06-04T13:45:22;23.40;1.00
9410;DHT22;4744;52.576;13.568;2023-06-04T13:47:49;23.30;1.00
9410;DHT22;4744;52.576;13.568;2023-06-04T13:50:16;23.30;1.00
9410;DHT22;4744;52.576;13.568;2023-06-04T13:52:43;23.20;1.00
9410;DHT22;4744;52.576;13.568;2023-06-04T13:55:12;23.20;1.00
9410;DHT22;4744;52.576;13.568;2023-06-04T13:57:39;23.10;1.00
9410;DHT22;4744;52.576;13.568;2023-06-04T14:00:07;23.10;1.00
9410;DHT22;4744;52.576;13.568;2023-06-04T14:02:36;23.20;1.00
9410;DHT22;4744;52.576;13.568;2023-06-04T14:05:05;23.20;1.00
9410;DHT22;4744;52.576;13.568;2023-06-04T14:07:32;23.20;1.00
9410;DHT22;4744;52.576;13.568;2023-06-04T14:09:59;23.10;1.00
9410;DHT22;4744;52.576;13.568;2023-06-04T14:12:26;23.10;1.00
9410;DHT22;4744;52.576;13.568;2023-06-04T14:14:53;23.10;1.00
9410;DHT22;4744;52.576;13.568;2023-06-04T14:17:20;23.20;1.00
9410;DHT22;4744;52.576;13.568;2023-06-04T14:19:48;23.20;1.00
9410;DHT22;4744;52.576;13.568;2023-06-04T14:22:15;23.20;1.00
9410;DHT22;4744;52.576;13.568;2023-06-04T14:24:42;23.20;1.00
9410;DHT22;4744;52.576;13.568;2023-06-04T14:27:09;23.30;1.00
9410;DHT22;4744;52.576;13.568;2023-06-04T14:29:36;23.40;1.00
9410;DHT22;4744;52.576;13.568;2023-06-04T14:32:04;23.40;1.00
9410;DHT22;4744;52.576;13.568;2023-06-04T14:34:31;23.20;1.00
9410;DHT22;4744;52.576;13.568;2023-06-04T14:37:00;23.10;1.00
9410;DHT22;4744;52.576;13.568;2023-06-04T14:39:27;23.10;1.00
9410;DHT22;4744;52.576;13.568;2023-06-04T14:41:54;23.20;1.00
9410;DHT22;4744;52.576;13.568;2023-06-04T14:44:21;23.10;1.00
9410;DHT22;4744;52.576;13.568;2023-06-04T14:46:49;23.10;1.00
9410;DHT22;4744;52.576;13.568;2023-06-04T14:49:17;23.20;1.00
9410;DHT22;4744;52.576;13.568;2023-06-04T14:51:45;23.20;1.00
9410;DHT22;4744;52.576;13.568;2023-06-04T14:54:13;23.20;1.00
9410;DHT22;4744;52.576;13.568;2023-06-04T14:56:40;23.30;1.00
9410;DHT22;4744;52.576;13.568;2023-06-04T14:59:07;23.20;1.00
9410;DHT22;4744;52.576;13.568;2023-06-04T15:01:36;23.10;1.00
9410;DHT22;4744;52.576;13.568;2023-06-04T15:04:03;23.00;1.00
9410;DHT22;4744;52.576;13.568;2023-06-04T15:06:30;23.10;1.00
9410;DHT22;4744;52.576;13.568;2023-06-04T15:08:58;23.00;1.00
9410;DHT22;4744;52.576;13.568;2023-06-04T15:11:26;23.10;1.00
9410;DHT22;4744;52.576;13.568;2023-06-04T15:13:53;23.00;1.00
9410;DHT22;4744;52.576;13.568;2023-06-04T15:16:20;23.10;1.00
9410;DHT22;4744;52.576;13.568;2023-06-04T15:18:48;23.20;1.00
9410;DHT22;4744;52.576;13.568;2023-06-04T15:21:15;23.20;1.00
9410;DHT22;4744;52.576;13.568;2023-06-04T15:23:42;23.10;1.00
9410;DHT22;4744;52.576;13.568;2023-06-04T15:26:14;23.20;1.00
9410;DHT22;4744;52.576;13.568;2023-06-04T15:28:42;23.20;1.00
9410;DHT22;4744;52.576;13.568;2023-06-04T15:31:09;23.20;1.00
9410;DHT22;4744;52.576;13.568;2023-06-04T15:33:36;23.10;1.00
9410;DHT22;4744;52.576;13.568;2023-06-04T15:36:03;23.10;1.00
9410;DHT22;4744;52.576;13.568;2023-06-04T15:38:31;23.10;1.00
9410;DHT22;4744;52.576;13.568;2023-06-04T15:40:59;23.10;1.00
9410;DHT22;4744;52.576;13.568;2023-06-04T15:43:26;23.10;1.00
9410;DHT22;4744;52.576;13.568;2023-06-04T15:45:54;23.10;1.00
9410;DHT22;4744;52.576;13.568;2023-06-04T15:48:21;23.20;1.00
9410;DHT22;4744;52.576;13.568;2023-06-04T15:50:48;23.10;1.00
9410;DHT22;4744;52.576;13.568;2023-06-04T15:53:16;23.10;1.00
9410;DHT22;4744;52.576;13.568;2023-06-04T15:55:43;23.20;1.00
9410;DHT22;4744;52.576;13.568;2023-06-04T15:58:10;23.20;1.00
9410;DHT22;4744;52.576;13.568;2023-06-04T16:00:37;23.20;1.00
9410;DHT22;4744;52.576;13.568;2023-06-04T16:03:05;23.20;1.00
9410;DHT22;4744;52.576;13.568;2023-06-04T16:05:32;23.20;1.00
9410;DHT22;4744;52.576;13.568;2023-06-04T16:07:59;23.20;1.00
9410;DHT22;4744;52.576;13.568;2023-06-04T16:10:26;23.20;1.00
9410;DHT22;4744;52.576;13.568;2023-06-04T16:12:53;23.20;1.00